sensor_id;sensor_type;location;lat;lon;timestamp;P1;durP1;ratioP1;P2;durP2;ratioP2
31920;SDS011;66485;52.128;4.436;2023-03-11T00:01:29;0.57;;;0.20;;
31920;SDS011;66485;52.128;4.436;2023-03-11T00:03:54;1.70;;;0.22;;
31920;SDS011;66485;52.128;4.436;2023-03-11T00:06:20;0.88;;;0.32;;
31920;SDS011;66485;52.128;4.436;2023-03-11T00:08:45;1.77;;;0.40;;
31920;SDS011;66485;52.128;4.436;2023-03-11T00:11:11;0.28;;;0.22;;
31920;SDS011;66485;52.128;4.436;2023-03-11T00:13:36;1.10;;;0.40;;
31920;SDS011;66485;52.128;4.436;2023-03-11T00:16:01;0.95;;;0.43;;
31920;SDS011;66485;52.128;4.436;2023-03-11T00:18:27;0.68;;;0.40;;
31920;SDS011;66485;52.128;4.436;2023-03-11T00:20:55;2.50;;;0.47;;
31920;SDS011;66485;52.128;4.436;2023-03-11T00:23:21;1.13;;;0.38;;
31920;SDS011;66485;52.128;4.436;2023-03-11T00:25:47;0.98;;;0.52;;
31920;SDS011;66485;52.128;4.436;2023-03-11T00:28:13;0.40;;;0.28;;
31920;SDS011;66485;52.128;4.436;2023-03-11T00:30:40;0.65;;;0.20;;
31920;SDS011;66485;52.128;4.436;2023-03-11T00:33:07;1.35;;;0.30;;
31920;SDS011;66485;52.128;4.436;2023-03-11T00:35:34;0.80;;;0.35;;
31920;SDS011;66485;52.128;4.436;2023-03-11T00:38:01;0.90;;;0.40;;
31920;SDS011;66485;52.128;4.436;2023-03-11T00:40:30;0.45;;;0.20;;
31920;SDS011;66485;52.128;4.436;2023-03-11T00:42:57;0.93;;;0.38;;
31920;SDS011;66485;52.128;4.436;2023-03-11T00:45:22;1.38;;;0.30;;
31920;SDS011;66485;52.128;4.436;2023-03-11T00:47:49;0.88;;;0.50;;
31920;SDS011;66485;52.128;4.436;2023-03-11T00:50:16;0.85;;;0.30;;
31920;SDS011;66485;52.128;4.436;2023-03-11T00:52:44;1.15;;;0.50;;
31920;SDS011;66485;52.128;4.436;2023-03-11T00:55:11;1.33;;;0.45;;
31920;SDS011;66485;52.128;4.436;2023-03-11T00:57:38;1.13;;;0.30;;
31920;SDS011;66485;52.128;4.436;2023-03-11T01:00:04;0.13;;;0.13;;
31920;SDS011;66485;52.128;4.436;2023-03-11T01:02:35;5.40;;;0.67;;
31920;SDS011;66485;52.128;4.436;2023-03-11T01:05:00;1.58;;;0.40;;
31920;SDS011;66485;52.128;4.436;2023-03-11T01:07:25;0.63;;;0.20;;
31920;SDS011;66485;52.128;4.436;2023-03-11T01:09:51;1.15;;;0.25;;
31920;SDS011;66485;52.128;4.436;2023-03-11T01:12:16;1.33;;;0.40;;
31920;SDS011;66485;52.128;4.436;2023-03-11T01:14:42;1.85;;;0.25;;
31920;SDS011;66485;52.128;4.436;2023-03-11T01:17:07;1.02;;;0.40;;
31920;SDS011;66485;52.128;4.436;2023-03-11T01:19:33;1.45;;;0.30;;
31920;SDS011;66485;52.128;4.436;2023-03-11T01:21:58;0.52;;;0.30;;
31920;SDS011;66485;52.128;4.436;2023-03-11T01:24:23;0.68;;;0.30;;
31920;SDS011;66485;52.128;4.436;2023-03-11T01:26:48;0.20;;;0.20;;
31920;SDS011;66485;52.128;4.436;2023-03-11T01:29:14;0.80;;;0.20;;
31920;SDS011;66485;52.128;4.436;2023-03-11T01:31:39;0.20;;;0.20;;
31920;SDS011;66485;52.128;4.436;2023-03-11T01:34:04;0.25;;;0.17;;
31920;SDS011;66485;52.128;4.436;2023-03-11T01:36:30;0.25;;;0.20;;
31920;SDS011;66485;52.128;4.436;2023-03-11T01:38:55;2.08;;;0.32;;
31920;SDS011;66485;52.128;4.436;2023-03-11T01:41:21;1.00;;;0.30;;
31920;SDS011;66485;52.128;4.436;2023-03-11T01:43:49;0.80;;;0.20;;
31920;SDS011;66485;52.128;4.436;2023-03-11T01:46:19;2.00;;;0.30;;
31920;SDS011;66485;52.128;4.436;2023-03-11T01:48:52;1.75;;;0.35;;
31920;SDS011;66485;52.128;4.436;2023-03-11T01:51:21;1.27;;;0.35;;
31920;SDS011;66485;52.128;4.436;2023-03-11T01:53:50;1.48;;;0.35;;
31920;SDS011;66485;52.128;4.436;2023-03-11T01:56:16;0.45;;;0.20;;
31920;SDS011;66485;52.128;4.436;2023-03-11T01:58:43;0.32;;;0.20;;
31920;SDS011;66485;52.128;4.436;2023-03-11T02:01:13;0.80;;;0.30;;
31920;SDS011;66485;52.128;4.436;2023-03-11T02:03:40;0.55;;;0.30;;
31920;SDS011;66485;52.128;4.436;2023-03-11T02:06:07;0.30;;;0.13;;
31920;SDS011;66485;52.128;4.436;2023-03-11T02:08:35;0.65;;;0.30;;
31920;SDS011;66485;52.128;4.436;2023-03-11T02:11:02;1.27;;;0.28;;
31920;SDS011;66485;52.128;4.436;2023-03-11T02:13:31;0.32;;;0.20;;
31920;SDS011;66485;52.128;4.436;2023-03-11T02:15:59;0.13;;;0.13;;
31920;SDS011;66485;52.128;4.436;2023-03-11T02:18:25;0.63;;;0.30;;
31920;SDS011;66485;52.128;4.436;2023-03-11T02:29:25;0.32;;;0.30;;
31920;SDS011;66485;52.128;4.436;2023-03-11T02:31:51;1.67;;;0.40;;
31920;SDS011;66485;52.128;4.436;2023-03-11T02:34:20;0.80;;;0.30;;
31920;SDS011;66485;52.128;4.436;2023-03-11T02:36:50;0.20;;;0.10;;
31920;SDS011;66485;52.128;4.436;2023-03-11T02:39:15;0.40;;;0.20;;
31920;SDS011;66485;52.128;4.436;2023-03-11T02:41:43;1.00;;;0.22;;
31920;SDS011;66485;52.128;4.436;2023-03-11T02:44:11;0.57;;;0.20;;
31920;SDS011;66485;52.128;4.436;2023-03-11T02:46:40;0.22;;;0.20;;
31920;SDS011;66485;52.128;4.436;2023-03-11T02:49:06;0.40;;;0.25;;
31920;SDS011;66485;52.128;4.436;2023-03-11T02:51:33;1.17;;;0.30;;
31920;SDS011;66485;52.128;4.436;2023-03-11T02:54:03;0.20;;;0.20;;
31920;SDS011;66485;52.128;4.436;2023-03-11T02:56:29;0.28;;;0.20;;
31920;SDS011;66485;52.128;4.436;2023-03-11T02:58:54;0.70;;;0.25;;
31920;SDS011;66485;52.128;4.436;2023-03-11T03:01:20;0.17;;;0.10;;
31920;SDS011;66485;52.128;4.436;2023-03-11T03:03:46;0.43;;;0.30;;
31920;SDS011;66485;52.128;4.436;2023-03-11T03:06:11;0.90;;;0.40;;
31920;SDS011;66485;52.128;4.436;2023-03-11T03:08:36;0.25;;;0.20;;
31920;SDS011;66485;52.128;4.436;2023-03-11T03:11:02;0.28;;;0.20;;
31920;SDS011;66485;52.128;4.436;2023-03-11T03:13:27;0.20;;;0.20;;
31920;SDS011;66485;52.128;4.436;2023-03-11T03:15:53;0.57;;;0.25;;
31920;SDS011;66485;52.128;4.436;2023-03-11T03:18:19;0.50;;;0.20;;
31920;SDS011;66485;52.128;4.436;2023-03-11T03:20:44;0.63;;;0.10;;
31920;SDS011;66485;52.128;4.436;2023-03-11T03:23:09;1.25;;;0.30;;
31920;SDS011;66485;52.128;4.436;2023-03-11T03:25:35;1.05;;;0.40;;
31920;SDS011;66485;52.128;4.436;2023-03-11T03:28:00;0.30;;;0.20;;
31920;SDS011;66485;52.128;4.436;2023-03-11T03:30:25;1.73;;;0.30;;
31920;SDS011;66485;52.128;4.436;2023-03-11T03:32:53;0.40;;;0.20;;
31920;SDS011;66485;52.128;4.436;2023-03-11T03:35:19;1.17;;;0.38;;
31920;SDS011;66485;52.128;4.436;2023-03-11T03:37:44;1.77;;;0.30;;
31920;SDS011;66485;52.128;4.436;2023-03-11T03:40:09;0.13;;;0.10;;
31920;SDS011;66485;52.128;4.436;2023-03-11T03:42:35;0.75;;;0.20;;
31920;SDS011;66485;52.128;4.436;2023-03-11T03:45:02;1.38;;;0.20;;
31920;SDS011;66485;52.128;4.436;2023-03-11T03:47:28;0.28;;;0.20;;
31920;SDS011;66485;52.128;4.436;2023-03-11T03:49:54;0.32;;;0.20;;
31920;SDS011;66485;52.128;4.436;2023-03-11T03:52:19;1.63;;;0.30;;
31920;SDS011;66485;52.128;4.436;2023-03-11T03:54:44;1.50;;;0.30;;
31920;SDS011;66485;52.128;4.436;2023-03-11T03:57:10;1.98;;;0.30;;
31920;SDS011;66485;52.128;4.436;2023-03-11T03:59:35;0.28;;;0.20;;
31920;SDS011;66485;52.128;4.436;2023-03-11T04:02:00;0.82;;;0.28;;
31920;SDS011;66485;52.128;4.436;2023-03-11T04:04:26;0.30;;;0.15;;
31920;SDS011;66485;52.128;4.436;2023-03-11T04:06:51;0.40;;;0.22;;
31920;SDS011;66485;52.128;4.436;2023-03-11T04:09:17;0.13;;;0.13;;
31920;SDS011;66485;52.128;4.436;2023-03-11T04:11:42;0.35;;;0.20;;
31920;SDS011;66485;52.128;4.436;2023-03-11T04:14:08;0.32;;;0.20;;
31920;SDS011;66485;52.128;4.436;2023-03-11T04:16:33;0.73;;;0.30;;
31920;SDS011;66485;52.128;4.436;2023-03-11T04:18:58;1.08;;;0.30;;
31920;SDS011;66485;52.128;4.436;2023-03-11T04:21:23;0.75;;;0.28;;
31920;SDS011;66485;52.128;4.436;2023-03-11T04:23:49;0.90;;;0.38;;
31920;SDS011;66485;52.128;4.436;2023-03-11T04:26:14;0.50;;;0.20;;
31920;SDS011;66485;52.128;4.436;2023-03-11T04:28:40;0.28;;;0.22;;
31920;SDS011;66485;52.128;4.436;2023-03-11T04:31:05;1.10;;;0.20;;
31920;SDS011;66485;52.128;4.436;2023-03-11T04:33:30;0.45;;;0.28;;
31920;SDS011;66485;52.128;4.436;2023-03-11T04:35:56;0.15;;;0.15;;
31920;SDS011;66485;52.128;4.436;2023-03-11T04:38:22;0.25;;;0.20;;
31920;SDS011;66485;52.128;4.436;2023-03-11T04:40:47;1.38;;;0.20;;
31920;SDS011;66485;52.128;4.436;2023-03-11T04:43:13;0.57;;;0.30;;
31920;SDS011;66485;52.128;4.436;2023-03-11T04:45:39;1.48;;;0.30;;
31920;SDS011;66485;52.128;4.436;2023-03-11T04:48:05;0.17;;;0.10;;
31920;SDS011;66485;52.128;4.436;2023-03-11T04:50:30;1.10;;;0.50;;
31920;SDS011;66485;52.128;4.436;2023-03-11T04:52:56;0.10;;;0.10;;
31920;SDS011;66485;52.128;4.436;2023-03-11T04:55:21;1.05;;;0.30;;
31920;SDS011;66485;52.128;4.436;2023-03-11T04:57:47;0.70;;;0.30;;
31920;SDS011;66485;52.128;4.436;2023-03-11T05:00:13;1.08;;;0.20;;
31920;SDS011;66485;52.128;4.436;2023-03-11T05:02:40;1.27;;;0.35;;
31920;SDS011;66485;52.128;4.436;2023-03-11T05:05:06;0.73;;;0.20;;
31920;SDS011;66485;52.128;4.436;2023-03-11T05:07:33;0.20;;;0.15;;
31920;SDS011;66485;52.128;4.436;2023-03-11T05:09:58;1.27;;;0.38;;
31920;SDS011;66485;52.128;4.436;2023-03-11T05:12:23;0.70;;;0.30;;
31920;SDS011;66485;52.128;4.436;2023-03-11T05:14:49;1.20;;;0.20;;
31920;SDS011;66485;52.128;4.436;2023-03-11T05:17:14;0.52;;;0.20;;
31920;SDS011;66485;52.128;4.436;2023-03-11T05:19:42;0.63;;;0.25;;
31920;SDS011;66485;52.128;4.436;2023-03-11T05:22:07;0.35;;;0.17;;
31920;SDS011;66485;52.128;4.436;2023-03-11T05:24:33;0.55;;;0.20;;
31920;SDS011;66485;52.128;4.436;2023-03-11T05:26:58;0.65;;;0.35;;
31920;SDS011;66485;52.128;4.436;2023-03-11T05:29:24;0.52;;;0.30;;
31920;SDS011;66485;52.128;4.436;2023-03-11T05:31:49;0.75;;;0.30;;
31920;SDS011;66485;52.128;4.436;2023-03-11T05:34:15;0.82;;;0.30;;
31920;SDS011;66485;52.128;4.436;2023-03-11T05:36:41;0.63;;;0.20;;
31920;SDS011;66485;52.128;4.436;2023-03-11T05:39:06;0.47;;;0.25;;
31920;SDS011;66485;52.128;4.436;2023-03-11T05:41:32;1.02;;;0.30;;
31920;SDS011;66485;52.128;4.436;2023-03-11T05:43:57;0.52;;;0.30;;
31920;SDS011;66485;52.128;4.436;2023-03-11T05:46:22;0.30;;;0.20;;
31920;SDS011;66485;52.128;4.436;2023-03-11T05:48:48;1.65;;;0.22;;
31920;SDS011;66485;52.128;4.436;2023-03-11T05:51:13;0.30;;;0.10;;
31920;SDS011;66485;52.128;4.436;2023-03-11T05:53:43;0.68;;;0.30;;
31920;SDS011;66485;52.128;4.436;2023-03-11T05:56:12;0.50;;;0.20;;
31920;SDS011;66485;52.128;4.436;2023-03-11T05:58:38;0.47;;;0.20;;
31920;SDS011;66485;52.128;4.436;2023-03-11T06:01:07;0.15;;;0.10;;
31920;SDS011;66485;52.128;4.436;2023-03-11T06:03:38;0.73;;;0.22;;
31920;SDS011;66485;52.128;4.436;2023-03-11T06:06:04;0.30;;;0.20;;
31920;SDS011;66485;52.128;4.436;2023-03-11T06:08:32;0.10;;;0.10;;
31920;SDS011;66485;52.128;4.436;2023-03-11T06:11:02;0.63;;;0.30;;
31920;SDS011;66485;52.128;4.436;2023-03-11T06:13:32;0.75;;;0.30;;
31920;SDS011;66485;52.128;4.436;2023-03-11T06:15:58;0.52;;;0.30;;
31920;SDS011;66485;52.128;4.436;2023-03-11T06:18:23;1.50;;;0.30;;
31920;SDS011;66485;52.128;4.436;2023-03-11T06:20:50;0.25;;;0.20;;
31920;SDS011;66485;52.128;4.436;2023-03-11T06:23:16;0.22;;;0.20;;
31920;SDS011;66485;52.128;4.436;2023-03-11T06:25:42;0.65;;;0.30;;
31920;SDS011;66485;52.128;4.436;2023-03-11T06:28:07;0.38;;;0.17;;
31920;SDS011;66485;52.128;4.436;2023-03-11T06:30:32;0.50;;;0.30;;
31920;SDS011;66485;52.128;4.436;2023-03-11T06:32:58;1.85;;;0.40;;
31920;SDS011;66485;52.128;4.436;2023-03-11T06:35:23;0.75;;;0.30;;
31920;SDS011;66485;52.128;4.436;2023-03-11T06:37:48;0.70;;;0.30;;
31920;SDS011;66485;52.128;4.436;2023-03-11T06:40:13;1.15;;;0.20;;
31920;SDS011;66485;52.128;4.436;2023-03-11T06:42:39;0.43;;;0.40;;
31920;SDS011;66485;52.128;4.436;2023-03-11T06:45:05;0.15;;;0.10;;
31920;SDS011;66485;52.128;4.436;2023-03-11T06:47:31;0.10;;;0.10;;
31920;SDS011;66485;52.128;4.436;2023-03-11T06:49:56;0.10;;;0.10;;
31920;SDS011;66485;52.128;4.436;2023-03-11T06:52:21;0.68;;;0.30;;
31920;SDS011;66485;52.128;4.436;2023-03-11T06:54:46;0.40;;;0.13;;
31920;SDS011;66485;52.128;4.436;2023-03-11T06:57:12;0.55;;;0.30;;
31920;SDS011;66485;52.128;4.436;2023-03-11T06:59:37;0.20;;;0.20;;
31920;SDS011;66485;52.128;4.436;2023-03-11T07:02:05;0.93;;;0.22;;
31920;SDS011;66485;52.128;4.436;2023-03-11T07:04:32;0.80;;;0.30;;
31920;SDS011;66485;52.128;4.436;2023-03-11T07:06:57;0.47;;;0.20;;
31920;SDS011;66485;52.128;4.436;2023-03-11T07:09:23;0.98;;;0.22;;
31920;SDS011;66485;52.128;4.436;2023-03-11T07:11:50;0.60;;;0.22;;
31920;SDS011;66485;52.128;4.436;2023-03-11T07:14:16;0.55;;;0.20;;
31920;SDS011;66485;52.128;4.436;2023-03-11T07:16:42;1.55;;;0.30;;
31920;SDS011;66485;52.128;4.436;2023-03-11T07:19:09;0.55;;;0.30;;
31920;SDS011;66485;52.128;4.436;2023-03-11T07:21:34;1.27;;;0.30;;
31920;SDS011;66485;52.128;4.436;2023-03-11T07:24:00;0.63;;;0.30;;
31920;SDS011;66485;52.128;4.436;2023-03-11T07:26:26;0.17;;;0.15;;
31920;SDS011;66485;52.128;4.436;2023-03-11T07:28:54;0.90;;;0.22;;
31920;SDS011;66485;52.128;4.436;2023-03-11T07:31:24;0.25;;;0.13;;
31920;SDS011;66485;52.128;4.436;2023-03-11T07:33:51;1.15;;;0.20;;
31920;SDS011;66485;52.128;4.436;2023-03-11T07:36:17;0.77;;;0.30;;
31920;SDS011;66485;52.128;4.436;2023-03-11T07:38:47;1.98;;;0.93;;
31920;SDS011;66485;52.128;4.436;2023-03-11T07:41:13;0.52;;;0.30;;
31920;SDS011;66485;52.128;4.436;2023-03-11T07:43:39;0.60;;;0.40;;
31920;SDS011;66485;52.128;4.436;2023-03-11T07:48:33;0.75;;;0.40;;
31920;SDS011;66485;52.128;4.436;2023-03-11T07:51:00;0.70;;;0.30;;
31920;SDS011;66485;52.128;4.436;2023-03-11T07:53:26;0.68;;;0.30;;
31920;SDS011;66485;52.128;4.436;2023-03-11T07:55:55;0.73;;;0.30;;
31920;SDS011;66485;52.128;4.436;2023-03-11T07:58:22;0.45;;;0.30;;
31920;SDS011;66485;52.128;4.436;2023-03-11T08:00:47;0.82;;;0.20;;
31920;SDS011;66485;52.128;4.436;2023-03-11T08:03:12;0.40;;;0.30;;
31920;SDS011;66485;52.128;4.436;2023-03-11T08:05:38;0.30;;;0.25;;
31920;SDS011;66485;52.128;4.436;2023-03-11T08:08:03;0.20;;;0.10;;
31920;SDS011;66485;52.128;4.436;2023-03-11T08:10:28;0.35;;;0.28;;
31920;SDS011;66485;52.128;4.436;2023-03-11T08:12:54;0.20;;;0.20;;
31920;SDS011;66485;52.128;4.436;2023-03-11T08:15:19;1.25;;;0.30;;
31920;SDS011;66485;52.128;4.436;2023-03-11T08:17:44;0.55;;;0.22;;
31920;SDS011;66485;52.128;4.436;2023-03-11T08:20:10;1.02;;;0.32;;
31920;SDS011;66485;52.128;4.436;2023-03-11T08:22:35;1.33;;;0.40;;
31920;SDS011;66485;52.128;4.436;2023-03-11T08:25:01;0.32;;;0.25;;
31920;SDS011;66485;52.128;4.436;2023-03-11T08:27:27;0.77;;;0.25;;
31920;SDS011;66485;52.128;4.436;2023-03-11T08:29:53;0.63;;;0.22;;
31920;SDS011;66485;52.128;4.436;2023-03-11T08:32:18;0.38;;;0.25;;
31920;SDS011;66485;52.128;4.436;2023-03-11T08:34:44;0.98;;;0.38;;
31920;SDS011;66485;52.128;4.436;2023-03-11T08:37:09;0.70;;;0.22;;
31920;SDS011;66485;52.128;4.436;2023-03-11T08:39:35;1.08;;;0.50;;
31920;SDS011;66485;52.128;4.436;2023-03-11T08:42:00;0.20;;;0.20;;
31920;SDS011;66485;52.128;4.436;2023-03-11T08:44:27;0.47;;;0.30;;
31920;SDS011;66485;52.128;4.436;2023-03-11T08:46:52;0.57;;;0.35;;
31920;SDS011;66485;52.128;4.436;2023-03-11T08:49:18;0.70;;;0.30;;
31920;SDS011;66485;52.128;4.436;2023-03-11T08:51:43;0.75;;;0.30;;
31920;SDS011;66485;52.128;4.436;2023-03-11T08:54:09;0.20;;;0.20;;
31920;SDS011;66485;52.128;4.436;2023-03-11T08:56:34;0.95;;;0.50;;
31920;SDS011;66485;52.128;4.436;2023-03-11T08:58:59;0.40;;;0.30;;
31920;SDS011;66485;52.128;4.436;2023-03-11T09:01:25;0.47;;;0.30;;
31920;SDS011;66485;52.128;4.436;2023-03-11T09:03:50;1.00;;;0.30;;
31920;SDS011;66485;52.128;4.436;2023-03-11T09:06:16;0.93;;;0.45;;
31920;SDS011;66485;52.128;4.436;2023-03-11T09:08:42;1.90;;;0.47;;
31920;SDS011;66485;52.128;4.436;2023-03-11T09:11:08;1.05;;;0.38;;
31920;SDS011;66485;52.128;4.436;2023-03-11T09:13:34;0.25;;;0.20;;
31920;SDS011;66485;52.128;4.436;2023-03-11T09:16:00;2.00;;;0.40;;
31920;SDS011;66485;52.128;4.436;2023-03-11T09:18:25;5.35;;;0.40;;
31920;SDS011;66485;52.128;4.436;2023-03-11T09:20:52;0.50;;;0.30;;
31920;SDS011;66485;52.128;4.436;2023-03-11T09:23:22;0.75;;;0.40;;
31920;SDS011;66485;52.128;4.436;2023-03-11T09:25:47;1.08;;;0.40;;
31920;SDS011;66485;52.128;4.436;2023-03-11T09:28:13;0.75;;;0.40;;
31920;SDS011;66485;52.128;4.436;2023-03-11T09:30:38;1.60;;;0.50;;
31920;SDS011;66485;52.128;4.436;2023-03-11T09:33:03;2.63;;;0.40;;
31920;SDS011;66485;52.128;4.436;2023-03-11T09:35:29;1.83;;;0.50;;
31920;SDS011;66485;52.128;4.436;2023-03-11T09:37:54;2.22;;;0.57;;
31920;SDS011;66485;52.128;4.436;2023-03-11T09:40:20;3.67;;;0.50;;
31920;SDS011;66485;52.128;4.436;2023-03-11T09:42:50;4.70;;;1.00;;
31920;SDS011;66485;52.128;4.436;2023-03-11T09:45:28;1.23;;;0.50;;
31920;SDS011;66485;52.128;4.436;2023-03-11T09:53:21;0.70;;;0.38;;
31920;SDS011;66485;52.128;4.436;2023-03-11T09:55:53;0.90;;;0.50;;
31920;SDS011;66485;52.128;4.436;2023-03-11T09:58:22;3.77;;;0.50;;
31920;SDS011;66485;52.128;4.436;2023-03-11T10:01:00;2.45;;;0.45;;
31920;SDS011;66485;52.128;4.436;2023-03-11T10:03:28;0.82;;;0.40;;
31920;SDS011;66485;52.128;4.436;2023-03-11T10:06:30;1.23;;;0.50;;
31920;SDS011;66485;52.128;4.436;2023-03-11T10:08:51;1.67;;;0.50;;
31920;SDS011;66485;52.128;4.436;2023-03-11T10:11:26;3.05;;;0.55;;
31920;SDS011;66485;52.128;4.436;2023-03-11T10:22:35;1.27;;;0.60;;
31920;SDS011;66485;52.128;4.436;2023-03-11T10:25:24;1.17;;;0.40;;
31920;SDS011;66485;52.128;4.436;2023-03-11T10:27:56;2.00;;;1.13;;
31920;SDS011;66485;52.128;4.436;2023-03-11T10:30:25;1.40;;;0.60;;
31920;SDS011;66485;52.128;4.436;2023-03-11T10:32:57;1.95;;;0.50;;
31920;SDS011;66485;52.128;4.436;2023-03-11T10:38:19;0.95;;;0.40;;
31920;SDS011;66485;52.128;4.436;2023-03-11T10:40:47;0.85;;;0.57;;
31920;SDS011;66485;52.128;4.436;2023-03-11T10:43:18;3.47;;;0.65;;
31920;SDS011;66485;52.128;4.436;2023-03-11T10:45:50;3.03;;;0.63;;
31920;SDS011;66485;52.128;4.436;2023-03-11T10:48:17;1.17;;;0.50;;
31920;SDS011;66485;52.128;4.436;2023-03-11T10:50:57;1.25;;;0.43;;
31920;SDS011;66485;52.128;4.436;2023-03-11T10:53:27;3.63;;;0.77;;
31920;SDS011;66485;52.128;4.436;2023-03-11T10:55:54;3.15;;;0.60;;
31920;SDS011;66485;52.128;4.436;2023-03-11T10:58:25;4.15;;;0.80;;
31920;SDS011;66485;52.128;4.436;2023-03-11T11:03:49;5.93;;;0.77;;
31920;SDS011;66485;52.128;4.436;2023-03-11T11:11:31;3.03;;;0.70;;
31920;SDS011;66485;52.128;4.436;2023-03-11T11:13:59;2.78;;;0.63;;
31920;SDS011;66485;52.128;4.436;2023-03-11T11:16:26;1.98;;;0.70;;
31920;SDS011;66485;52.128;4.436;2023-03-11T11:19:02;2.80;;;1.00;;
31920;SDS011;66485;52.128;4.436;2023-03-11T11:21:38;1.45;;;0.68;;
31920;SDS011;66485;52.128;4.436;2023-03-11T11:26:38;4.45;;;0.88;;
31920;SDS011;66485;52.128;4.436;2023-03-11T11:29:04;2.25;;;0.80;;
31920;SDS011;66485;52.128;4.436;2023-03-11T11:31:37;2.45;;;0.70;;
31920;SDS011;66485;52.128;4.436;2023-03-11T11:36:57;1.20;;;0.60;;
31920;SDS011;66485;52.128;4.436;2023-03-11T11:39:25;1.15;;;0.68;;
31920;SDS011;66485;52.128;4.436;2023-03-11T11:41:53;4.75;;;1.13;;
31920;SDS011;66485;52.128;4.436;2023-03-11T11:44:20;2.00;;;0.80;;
31920;SDS011;66485;52.128;4.436;2023-03-11T11:46:51;4.00;;;0.85;;
31920;SDS011;66485;52.128;4.436;2023-03-11T11:49:23;1.55;;;0.75;;
31920;SDS011;66485;52.128;4.436;2023-03-11T11:54:46;3.38;;;0.77;;
31920;SDS011;66485;52.128;4.436;2023-03-11T11:57:17;2.33;;;0.60;;
31920;SDS011;66485;52.128;4.436;2023-03-11T11:59:44;2.30;;;0.90;;
31920;SDS011;66485;52.128;4.436;2023-03-11T12:08:08;2.20;;;0.70;;
31920;SDS011;66485;52.128;4.436;2023-03-11T12:21:06;2.58;;;0.80;;
31920;SDS011;66485;52.128;4.436;2023-03-11T12:26:33;2.13;;;0.80;;
31920;SDS011;66485;52.128;4.436;2023-03-11T12:29:03;2.58;;;1.05;;
31920;SDS011;66485;52.128;4.436;2023-03-11T12:31:35;2.45;;;0.73;;
31920;SDS011;66485;52.128;4.436;2023-03-11T12:34:03;3.47;;;1.02;;
31920;SDS011;66485;52.128;4.436;2023-03-11T12:36:34;3.97;;;1.05;;
31920;SDS011;66485;52.128;4.436;2023-03-11T12:39:04;1.77;;;0.95;;
31920;SDS011;66485;52.128;4.436;2023-03-11T12:41:32;3.80;;;1.40;;
31920;SDS011;66485;52.128;4.436;2023-03-11T12:44:08;2.35;;;1.00;;
31920;SDS011;66485;52.128;4.436;2023-03-11T12:49:28;3.00;;;0.70;;
31920;SDS011;66485;52.128;4.436;2023-03-11T12:57:05;2.75;;;0.80;;
31920;SDS011;66485;52.128;4.436;2023-03-11T13:05:20;2.25;;;0.90;;
31920;SDS011;66485;52.128;4.436;2023-03-11T13:10:43;2.47;;;1.00;;
31920;SDS011;66485;52.128;4.436;2023-03-11T13:18:45;1.60;;;0.82;;
31920;SDS011;66485;52.128;4.436;2023-03-11T13:37:48;2.20;;;0.80;;
31920;SDS011;66485;52.128;4.436;2023-03-11T13:43:03;2.53;;;1.08;;
31920;SDS011;66485;52.128;4.436;2023-03-11T13:45:34;2.30;;;1.00;;
31920;SDS011;66485;52.128;4.436;2023-03-11T13:48:02;1.92;;;1.10;;
31920;SDS011;66485;52.128;4.436;2023-03-11T13:50:39;1.73;;;0.90;;
31920;SDS011;66485;52.128;4.436;2023-03-11T13:53:09;1.52;;;0.80;;
31920;SDS011;66485;52.128;4.436;2023-03-11T13:55:44;1.65;;;0.80;;
31920;SDS011;66485;52.128;4.436;2023-03-11T13:58:28;2.75;;;0.93;;
31920;SDS011;66485;52.128;4.436;2023-03-11T14:00:55;2.72;;;1.00;;
31920;SDS011;66485;52.128;4.436;2023-03-11T14:03:21;3.30;;;0.95;;
31920;SDS011;66485;52.128;4.436;2023-03-11T14:05:54;3.60;;;0.75;;
31920;SDS011;66485;52.128;4.436;2023-03-11T14:13:18;2.92;;;0.90;;
31920;SDS011;66485;52.128;4.436;2023-03-11T14:15:46;1.85;;;0.80;;
31920;SDS011;66485;52.128;4.436;2023-03-11T14:21:05;1.50;;;0.68;;
31920;SDS011;66485;52.128;4.436;2023-03-11T14:23:38;1.92;;;0.80;;
31920;SDS011;66485;52.128;4.436;2023-03-11T14:26:06;2.67;;;0.68;;
31920;SDS011;66485;52.128;4.436;2023-03-11T14:28:35;1.98;;;0.60;;
31920;SDS011;66485;52.128;4.436;2023-03-11T14:31:02;1.30;;;0.60;;
31920;SDS011;66485;52.128;4.436;2023-03-11T14:33:28;1.75;;;0.75;;
31920;SDS011;66485;52.128;4.436;2023-03-11T14:35:55;1.38;;;0.70;;
31920;SDS011;66485;52.128;4.436;2023-03-11T14:38:29;1.85;;;0.80;;
31920;SDS011;66485;52.128;4.436;2023-03-11T14:41:00;1.52;;;0.70;;
31920;SDS011;66485;52.128;4.436;2023-03-11T14:43:28;2.05;;;0.88;;
31920;SDS011;66485;52.128;4.436;2023-03-11T14:45:57;1.52;;;0.80;;
31920;SDS011;66485;52.128;4.436;2023-03-11T14:50:49;1.70;;;0.60;;
31920;SDS011;66485;52.128;4.436;2023-03-11T14:53:25;1.25;;;0.60;;
31920;SDS011;66485;52.128;4.436;2023-03-11T14:55:58;2.20;;;0.73;;
31920;SDS011;66485;52.128;4.436;2023-03-11T15:03:44;1.65;;;0.75;;
31920;SDS011;66485;52.128;4.436;2023-03-11T15:06:15;1.23;;;0.57;;
31920;SDS011;66485;52.128;4.436;2023-03-11T15:08:44;1.60;;;0.70;;
31920;SDS011;66485;52.128;4.436;2023-03-11T15:13:38;2.47;;;0.63;;
31920;SDS011;66485;52.128;4.436;2023-03-11T15:16:06;3.25;;;0.80;;
31920;SDS011;66485;52.128;4.436;2023-03-11T15:18:46;1.70;;;0.83;;
31920;SDS011;66485;52.128;4.436;2023-03-11T15:21:13;0.80;;;0.55;;
31920;SDS011;66485;52.128;4.436;2023-03-11T15:23:46;1.48;;;0.70;;
31920;SDS011;66485;52.128;4.436;2023-03-11T15:26:27;0.90;;;0.60;;
31920;SDS011;66485;52.128;4.436;2023-03-11T15:28:58;1.50;;;0.60;;
31920;SDS011;66485;52.128;4.436;2023-03-11T15:31:31;2.53;;;0.85;;
31920;SDS011;66485;52.128;4.436;2023-03-11T15:36:44;1.55;;;0.70;;
31920;SDS011;66485;52.128;4.436;2023-03-11T15:42:00;2.78;;;0.70;;
31920;SDS011;66485;52.128;4.436;2023-03-11T15:44:34;1.55;;;0.70;;
31920;SDS011;66485;52.128;4.436;2023-03-11T15:47:06;0.85;;;0.55;;
31920;SDS011;66485;52.128;4.436;2023-03-11T15:49:37;2.97;;;0.93;;
31920;SDS011;66485;52.128;4.436;2023-03-11T15:52:02;3.25;;;0.70;;
31920;SDS011;66485;52.128;4.436;2023-03-11T15:54:28;0.70;;;0.50;;
31920;SDS011;66485;52.128;4.436;2023-03-11T15:56:54;1.55;;;0.65;;
31920;SDS011;66485;52.128;4.436;2023-03-11T15:59:21;1.80;;;0.63;;
31920;SDS011;66485;52.128;4.436;2023-03-11T16:01:47;1.42;;;0.50;;
31920;SDS011;66485;52.128;4.436;2023-03-11T16:04:13;2.28;;;0.80;;
31920;SDS011;66485;52.128;4.436;2023-03-11T16:06:41;0.95;;;0.50;;
31920;SDS011;66485;52.128;4.436;2023-03-11T16:09:07;1.30;;;0.57;;
31920;SDS011;66485;52.128;4.436;2023-03-11T16:11:33;1.02;;;0.50;;
31920;SDS011;66485;52.128;4.436;2023-03-11T16:13:58;0.47;;;0.30;;
31920;SDS011;66485;52.128;4.436;2023-03-11T16:16:24;3.00;;;0.60;;
31920;SDS011;66485;52.128;4.436;2023-03-11T16:18:49;2.50;;;0.73;;
31920;SDS011;66485;52.128;4.436;2023-03-11T16:21:16;1.15;;;0.60;;
31920;SDS011;66485;52.128;4.436;2023-03-11T16:23:45;0.70;;;0.50;;
31920;SDS011;66485;52.128;4.436;2023-03-11T16:26:11;0.90;;;0.50;;
31920;SDS011;66485;52.128;4.436;2023-03-11T16:28:37;1.08;;;0.45;;
31920;SDS011;66485;52.128;4.436;2023-03-11T16:31:03;1.42;;;0.60;;
31920;SDS011;66485;52.128;4.436;2023-03-11T16:33:29;1.42;;;0.75;;
31920;SDS011;66485;52.128;4.436;2023-03-11T16:35:55;1.15;;;0.60;;
31920;SDS011;66485;52.128;4.436;2023-03-11T16:38:20;1.92;;;0.70;;
31920;SDS011;66485;52.128;4.436;2023-03-11T16:41:20;1.70;;;0.52;;
31920;SDS011;66485;52.128;4.436;2023-03-11T16:43:39;1.17;;;0.57;;
31920;SDS011;66485;52.128;4.436;2023-03-11T16:46:04;1.55;;;0.50;;
31920;SDS011;66485;52.128;4.436;2023-03-11T16:48:30;1.42;;;0.70;;
31920;SDS011;66485;52.128;4.436;2023-03-11T16:50:55;1.23;;;0.50;;
31920;SDS011;66485;52.128;4.436;2023-03-11T16:53:21;1.45;;;0.60;;
31920;SDS011;66485;52.128;4.436;2023-03-11T16:55:47;1.30;;;0.60;;
31920;SDS011;66485;52.128;4.436;2023-03-11T16:58:12;0.80;;;0.47;;